sensor_id;sensor_type;location;lat;lon;timestamp;P1;durP1;ratioP1;P2;durP2;ratioP2
42802;SDS011;28447;48.682;9.022;2023-02-17T05:02:54;10.30;;;4.97;;
42802;SDS011;28447;48.682;9.022;2023-02-17T05:05:20;6.60;;;4.43;;
42802;SDS011;28447;48.682;9.022;2023-02-17T05:07:45;7.43;;;4.77;;
42802;SDS011;28447;48.682;9.022;2023-02-17T05:10:12;6.83;;;4.27;;
42802;SDS011;28447;48.682;9.022;2023-02-17T05:12:38;12.73;;;5.63;;
42802;SDS011;28447;48.682;9.022;2023-02-17T05:15:04;9.30;;;5.37;;
42802;SDS011;28447;48.682;9.022;2023-02-17T05:17:31;10.07;;;5.03;;
42802;SDS011;28447;48.682;9.022;2023-02-17T05:19:57;7.30;;;4.80;;
42802;SDS011;28447;48.682;9.022;2023-02-17T05:22:23;9.67;;;4.77;;
42802;SDS011;28447;48.682;9.022;2023-02-17T05:24:48;7.23;;;4.83;;
42802;SDS011;28447;48.682;9.022;2023-02-17T05:27:14;9.70;;;5.50;;
42802;SDS011;28447;48.682;9.022;2023-02-17T05:29:40;9.60;;;4.97;;
42802;SDS011;28447;48.682;9.022;2023-02-17T05:32:05;8.60;;;5.83;;
42802;SDS011;28447;48.682;9.022;2023-02-17T05:34:31;9.97;;;5.23;;
42802;SDS011;28447;48.682;9.022;2023-02-17T05:36:57;10.23;;;4.90;;
42802;SDS011;28447;48.682;9.022;2023-02-17T05:39:23;7.47;;;4.43;;
42802;SDS011;28447;48.682;9.022;2023-02-17T05:41:48;7.70;;;5.07;;
42802;SDS011;28447;48.682;9.022;2023-02-17T05:44:14;8.20;;;5.50;;
42802;SDS011;28447;48.682;9.022;2023-02-17T05:46:39;8.53;;;4.70;;
42802;SDS011;28447;48.682;9.022;2023-02-17T05:49:05;8.93;;;4.50;;
42802;SDS011;28447;48.682;9.022;2023-02-17T05:51:31;7.23;;;5.00;;
42802;SDS011;28447;48.682;9.022;2023-02-17T05:53:57;7.03;;;5.23;;
42802;SDS011;28447;48.682;9.022;2023-02-17T05:56:22;8.87;;;5.90;;
42802;SDS011;28447;48.682;9.022;2023-02-17T05:58:48;9.40;;;4.73;;
42802;SDS011;28447;48.682;9.022;2023-02-17T06:01:14;8.10;;;5.33;;
42802;SDS011;28447;48.682;9.022;2023-02-17T06:03:39;12.10;;;4.93;;
42802;SDS011;28447;48.682;9.022;2023-02-17T06:06:05;7.63;;;4.70;;
42802;SDS011;28447;48.682;9.022;2023-02-17T06:08:31;5.80;;;4.60;;
42802;SDS011;28447;48.682;9.022;2023-02-17T06:10:57;11.13;;;4.80;;
42802;SDS011;28447;48.682;9.022;2023-02-17T06:13:23;9.47;;;5.27;;
42802;SDS011;28447;48.682;9.022;2023-02-17T06:15:49;6.90;;;4.77;;
42802;SDS011;28447;48.682;9.022;2023-02-17T06:18:14;7.00;;;4.90;;
42802;SDS011;28447;48.682;9.022;2023-02-17T06:20:40;7.40;;;4.43;;
42802;SDS011;28447;48.682;9.022;2023-02-17T06:23:06;6.43;;;4.60;;
42802;SDS011;28447;48.682;9.022;2023-02-17T06:25:31;11.40;;;5.53;;
42802;SDS011;28447;48.682;9.022;2023-02-17T06:27:57;8.17;;;5.00;;
42802;SDS011;28447;48.682;9.022;2023-02-17T06:30:23;8.80;;;4.80;;
42802;SDS011;28447;48.682;9.022;2023-02-17T06:32:49;9.40;;;5.20;;
42802;SDS011;28447;48.682;9.022;2023-02-17T06:35:15;9.13;;;5.43;;
42802;SDS011;28447;48.682;9.022;2023-02-17T06:37:41;10.30;;;5.23;;
42802;SDS011;28447;48.682;9.022;2023-02-17T06:40:08;9.20;;;4.97;;
42802;SDS011;28447;48.682;9.022;2023-02-17T06:42:34;8.20;;;4.90;;
42802;SDS011;28447;48.682;9.022;2023-02-17T06:45:00;10.90;;;6.13;;
42802;SDS011;28447;48.682;9.022;2023-02-17T06:47:29;7.77;;;5.30;;
42802;SDS011;28447;48.682;9.022;2023-02-17T06:49:55;10.93;;;5.17;;
42802;SDS011;28447;48.682;9.022;2023-02-17T06:52:20;8.47;;;5.20;;
42802;SDS011;28447;48.682;9.022;2023-02-17T06:54:46;7.47;;;5.00;;
42802;SDS011;28447;48.682;9.022;2023-02-17T06:57:11;8.50;;;5.30;;
42802;SDS011;28447;48.682;9.022;2023-02-17T06:59:37;6.23;;;4.73;;
42802;SDS011;28447;48.682;9.022;2023-02-17T07:02:03;8.83;;;5.03;;
42802;SDS011;28447;48.682;9.022;2023-02-17T07:04:29;6.80;;;4.20;;
42802;SDS011;28447;48.682;9.022;2023-02-17T07:06:55;8.70;;;5.27;;
42802;SDS011;28447;48.682;9.022;2023-02-17T07:09:20;6.27;;;4.60;;
42802;SDS011;28447;48.682;9.022;2023-02-17T07:11:46;7.50;;;4.87;;
42802;SDS011;28447;48.682;9.022;2023-02-17T07:14:12;7.00;;;4.67;;
42802;SDS011;28447;48.682;9.022;2023-02-17T07:16:38;7.07;;;4.70;;
42802;SDS011;28447;48.682;9.022;2023-02-17T07:19:03;8.20;;;3.87;;
42802;SDS011;28447;48.682;9.022;2023-02-17T07:21:29;7.70;;;4.20;;
42802;SDS011;28447;48.682;9.022;2023-02-17T07:23:55;7.40;;;3.77;;
42802;SDS011;28447;48.682;9.022;2023-02-17T07:26:20;5.07;;;4.07;;
42802;SDS011;28447;48.682;9.022;2023-02-17T07:28:46;5.90;;;4.10;;
42802;SDS011;28447;48.682;9.022;2023-02-17T07:31:13;5.20;;;3.93;;
42802;SDS011;28447;48.682;9.022;2023-02-17T07:33:40;4.63;;;3.93;;
42802;SDS011;28447;48.682;9.022;2023-02-17T07:38:37;5.47;;;3.60;;
42802;SDS011;28447;48.682;9.022;2023-02-17T07:41:07;4.90;;;3.50;;
42802;SDS011;28447;48.682;9.022;2023-02-17T07:43:44;6.70;;;3.90;;
42802;SDS011;28447;48.682;9.022;2023-02-17T07:46:10;6.90;;;4.30;;
42802;SDS011;28447;48.682;9.022;2023-02-17T07:48:36;6.60;;;4.10;;
42802;SDS011;28447;48.682;9.022;2023-02-17T07:51:06;5.37;;;3.80;;
42802;SDS011;28447;48.682;9.022;2023-02-17T07:53:33;8.65;;;4.63;;
42802;SDS011;28447;48.682;9.022;2023-02-17T07:56:03;8.83;;;4.07;;
42802;SDS011;28447;48.682;9.022;2023-02-17T07:58:31;5.57;;;3.47;;
42802;SDS011;28447;48.682;9.022;2023-02-17T08:00:57;6.80;;;4.40;;
42802;SDS011;28447;48.682;9.022;2023-02-17T08:03:28;4.90;;;3.90;;
42802;SDS011;28447;48.682;9.022;2023-02-17T08:05:54;13.20;;;4.27;;
42802;SDS011;28447;48.682;9.022;2023-02-17T08:08:20;7.50;;;3.90;;
42802;SDS011;28447;48.682;9.022;2023-02-17T08:11:04;9.40;;;4.20;;
42802;SDS011;28447;48.682;9.022;2023-02-17T08:13:48;7.43;;;3.87;;
42802;SDS011;28447;48.682;9.022;2023-02-17T08:16:13;6.50;;;3.70;;
42802;SDS011;28447;48.682;9.022;2023-02-17T08:18:39;10.70;;;4.97;;
42802;SDS011;28447;48.682;9.022;2023-02-17T08:21:04;8.00;;;4.13;;
42802;SDS011;28447;48.682;9.022;2023-02-17T08:23:30;6.73;;;4.13;;
42802;SDS011;28447;48.682;9.022;2023-02-17T08:25:56;6.27;;;3.70;;
42802;SDS011;28447;48.682;9.022;2023-02-17T08:28:23;8.83;;;4.33;;
42802;SDS011;28447;48.682;9.022;2023-02-17T08:30:48;6.47;;;3.87;;
42802;SDS011;28447;48.682;9.022;2023-02-17T08:33:14;5.37;;;3.80;;
42802;SDS011;28447;48.682;9.022;2023-02-17T08:35:43;6.37;;;4.60;;
42802;SDS011;28447;48.682;9.022;2023-02-17T08:38:09;7.00;;;4.37;;
42802;SDS011;28447;48.682;9.022;2023-02-17T08:40:35;7.20;;;4.07;;
42802;SDS011;28447;48.682;9.022;2023-02-17T08:43:01;7.93;;;4.10;;
42802;SDS011;28447;48.682;9.022;2023-02-17T08:45:27;5.30;;;4.00;;
42802;SDS011;28447;48.682;9.022;2023-02-17T08:47:52;5.80;;;3.60;;
42802;SDS011;28447;48.682;9.022;2023-02-17T08:50:18;6.77;;;4.00;;
42802;SDS011;28447;48.682;9.022;2023-02-17T08:52:44;6.63;;;3.83;;
42802;SDS011;28447;48.682;9.022;2023-02-17T08:55:11;14.27;;;4.37;;
42802;SDS011;28447;48.682;9.022;2023-02-17T08:57:37;10.80;;;4.10;;
42802;SDS011;28447;48.682;9.022;2023-02-17T09:00:04;7.27;;;4.27;;
42802;SDS011;28447;48.682;9.022;2023-02-17T09:02:30;6.60;;;4.00;;
42802;SDS011;28447;48.682;9.022;2023-02-17T09:04:56;6.63;;;4.00;;
42802;SDS011;28447;48.682;9.022;2023-02-17T09:07:22;13.33;;;4.10;;
42802;SDS011;28447;48.682;9.022;2023-02-17T09:09:47;6.73;;;4.07;;
42802;SDS011;28447;48.682;9.022;2023-02-17T09:12:13;5.70;;;3.73;;
42802;SDS011;28447;48.682;9.022;2023-02-17T09:14:39;5.07;;;4.00;;
42802;SDS011;28447;48.682;9.022;2023-02-17T09:17:04;7.30;;;4.60;;
42802;SDS011;28447;48.682;9.022;2023-02-17T09:19:30;6.30;;;4.27;;
42802;SDS011;28447;48.682;9.022;2023-02-17T09:21:56;5.20;;;4.00;;
42802;SDS011;28447;48.682;9.022;2023-02-17T09:24:21;5.73;;;4.10;;
42802;SDS011;28447;48.682;9.022;2023-02-17T09:26:47;7.37;;;3.43;;
42802;SDS011;28447;48.682;9.022;2023-02-17T09:29:13;5.23;;;3.70;;
42802;SDS011;28447;48.682;9.022;2023-02-17T09:31:38;7.60;;;3.70;;
42802;SDS011;28447;48.682;9.022;2023-02-17T09:34:04;5.70;;;3.77;;
42802;SDS011;28447;48.682;9.022;2023-02-17T09:36:31;4.80;;;3.40;;
42802;SDS011;28447;48.682;9.022;2023-02-17T09:39:06;4.97;;;3.30;;
42802;SDS011;28447;48.682;9.022;2023-02-17T09:44:22;5.37;;;3.53;;
42802;SDS011;28447;48.682;9.022;2023-02-17T09:46:54;6.20;;;3.57;;
42802;SDS011;28447;48.682;9.022;2023-02-17T09:49:27;6.07;;;3.87;;
42802;SDS011;28447;48.682;9.022;2023-02-17T09:52:01;10.20;;;4.43;;
42802;SDS011;28447;48.682;9.022;2023-02-17T09:54:36;8.00;;;3.63;;
42802;SDS011;28447;48.682;9.022;2023-02-17T09:57:16;4.50;;;3.43;;
42802;SDS011;28447;48.682;9.022;2023-02-17T09:59:45;4.10;;;3.23;;
42802;SDS011;28447;48.682;9.022;2023-02-17T10:02:18;5.17;;;3.30;;
42802;SDS011;28447;48.682;9.022;2023-02-17T10:05:13;5.47;;;3.17;;
42802;SDS011;28447;48.682;9.022;2023-02-17T10:07:47;4.10;;;2.90;;
42802;SDS011;28447;48.682;9.022;2023-02-17T10:10:19;3.40;;;3.10;;
42802;SDS011;28447;48.682;9.022;2023-02-17T10:12:49;4.40;;;2.87;;
42802;SDS011;28447;48.682;9.022;2023-02-17T10:15:25;8.37;;;3.53;;
42802;SDS011;28447;48.682;9.022;2023-02-17T10:17:59;4.23;;;3.20;;
42802;SDS011;28447;48.682;9.022;2023-02-17T10:20:33;4.83;;;3.10;;
42802;SDS011;28447;48.682;9.022;2023-02-17T10:23:04;3.20;;;2.70;;
42802;SDS011;28447;48.682;9.022;2023-02-17T10:31:27;5.00;;;2.87;;
42802;SDS011;28447;48.682;9.022;2023-02-17T10:34:12;3.53;;;2.87;;
42802;SDS011;28447;48.682;9.022;2023-02-17T10:36:58;6.70;;;3.80;;
42802;SDS011;28447;48.682;9.022;2023-02-17T10:41:54;5.30;;;2.93;;
42802;SDS011;28447;48.682;9.022;2023-02-17T10:44:21;9.07;;;3.10;;
42802;SDS011;28447;48.682;9.022;2023-02-17T10:46:49;4.63;;;3.40;;
42802;SDS011;28447;48.682;9.022;2023-02-17T10:49:21;3.10;;;2.67;;
42802;SDS011;28447;48.682;9.022;2023-02-17T10:51:53;2.37;;;2.17;;
42802;SDS011;28447;48.682;9.022;2023-02-17T10:54:25;3.77;;;2.40;;
42802;SDS011;28447;48.682;9.022;2023-02-17T10:56:57;2.73;;;2.20;;
42802;SDS011;28447;48.682;9.022;2023-02-17T10:59:29;8.33;;;2.30;;
42802;SDS011;28447;48.682;9.022;2023-02-17T11:02:04;3.67;;;2.63;;
42802;SDS011;28447;48.682;9.022;2023-02-17T11:04:50;2.40;;;1.90;;
42802;SDS011;28447;48.682;9.022;2023-02-17T11:07:21;3.97;;;2.20;;
42802;SDS011;28447;48.682;9.022;2023-02-17T11:09:57;4.87;;;2.67;;
42802;SDS011;28447;48.682;9.022;2023-02-17T11:12:33;3.97;;;2.37;;
42802;SDS011;28447;48.682;9.022;2023-02-17T11:15:28;4.10;;;2.23;;
42802;SDS011;28447;48.682;9.022;2023-02-17T11:18:11;6.00;;;2.43;;
42802;SDS011;28447;48.682;9.022;2023-02-17T11:20:46;2.73;;;2.10;;
42802;SDS011;28447;48.682;9.022;2023-02-17T11:25:40;3.27;;;1.93;;
42802;SDS011;28447;48.682;9.022;2023-02-17T11:28:19;2.07;;;1.77;;
42802;SDS011;28447;48.682;9.022;2023-02-17T11:30:51;2.90;;;2.00;;
42802;SDS011;28447;48.682;9.022;2023-02-17T11:33:27;2.10;;;1.80;;
42802;SDS011;28447;48.682;9.022;2023-02-17T11:35:58;2.27;;;1.83;;
42802;SDS011;28447;48.682;9.022;2023-02-17T11:38:25;2.20;;;2.00;;
42802;SDS011;28447;48.682;9.022;2023-02-17T11:43:29;4.07;;;2.30;;
42802;SDS011;28447;48.682;9.022;2023-02-17T11:51:57;3.60;;;2.17;;
42802;SDS011;28447;48.682;9.022;2023-02-17T11:54:35;2.77;;;2.30;;
42802;SDS011;28447;48.682;9.022;2023-02-17T12:05:34;4.63;;;2.37;;
42802;SDS011;28447;48.682;9.022;2023-02-17T12:26:48;2.60;;;1.80;;
42802;SDS011;28447;48.682;9.022;2023-02-17T12:29:29;4.47;;;1.90;;
42802;SDS011;28447;48.682;9.022;2023-02-17T12:37:31;3.00;;;2.07;;
42802;SDS011;28447;48.682;9.022;2023-02-17T12:40:06;3.40;;;2.70;;
42802;SDS011;28447;48.682;9.022;2023-02-17T12:42:53;2.40;;;2.20;;
42802;SDS011;28447;48.682;9.022;2023-02-17T12:45:34;2.57;;;2.37;;
42802;SDS011;28447;48.682;9.022;2023-02-17T12:48:04;2.67;;;2.00;;
42802;SDS011;28447;48.682;9.022;2023-02-17T12:53:17;2.50;;;1.93;;
42802;SDS011;28447;48.682;9.022;2023-02-17T12:55:58;2.17;;;1.97;;
42802;SDS011;28447;48.682;9.022;2023-02-17T12:58:28;3.90;;;2.57;;
42802;SDS011;28447;48.682;9.022;2023-02-17T13:01:10;2.50;;;1.80;;
42802;SDS011;28447;48.682;9.022;2023-02-17T13:03:42;2.43;;;2.07;;
42802;SDS011;28447;48.682;9.022;2023-02-17T13:06:14;1.70;;;1.60;;
42802;SDS011;28447;48.682;9.022;2023-02-17T13:08:51;3.10;;;1.77;;
42802;SDS011;28447;48.682;9.022;2023-02-17T13:11:26;1.80;;;1.63;;
42802;SDS011;28447;48.682;9.022;2023-02-17T13:13:57;2.30;;;1.93;;
42802;SDS011;28447;48.682;9.022;2023-02-17T13:16:52;1.70;;;1.60;;
42802;SDS011;28447;48.682;9.022;2023-02-17T13:19:39;4.23;;;2.57;;
42802;SDS011;28447;48.682;9.022;2023-02-17T13:22:05;2.13;;;1.93;;
42802;SDS011;28447;48.682;9.022;2023-02-17T13:24:33;3.23;;;1.97;;
42802;SDS011;28447;48.682;9.022;2023-02-17T13:30:02;2.70;;;2.20;;
42802;SDS011;28447;48.682;9.022;2023-02-17T13:32:34;1.93;;;1.77;;
42802;SDS011;28447;48.682;9.022;2023-02-17T13:40:01;3.90;;;2.10;;
42802;SDS011;28447;48.682;9.022;2023-02-17T13:43:05;2.60;;;2.40;;
42802;SDS011;28447;48.682;9.022;2023-02-17T13:45:52;2.67;;;2.47;;
42802;SDS011;28447;48.682;9.022;2023-02-17T13:48:25;3.43;;;2.30;;
42802;SDS011;28447;48.682;9.022;2023-02-17T13:50:53;2.40;;;2.03;;
42802;SDS011;28447;48.682;9.022;2023-02-17T13:53:37;2.60;;;2.33;;
42802;SDS011;28447;48.682;9.022;2023-02-17T13:56:09;3.53;;;2.00;;
42802;SDS011;28447;48.682;9.022;2023-02-17T13:58:46;2.37;;;2.17;;
42802;SDS011;28447;48.682;9.022;2023-02-17T14:01:14;3.70;;;2.30;;
42802;SDS011;28447;48.682;9.022;2023-02-17T14:03:45;2.67;;;2.40;;
42802;SDS011;28447;48.682;9.022;2023-02-17T14:06:12;2.40;;;2.10;;
42802;SDS011;28447;48.682;9.022;2023-02-17T14:11:43;2.83;;;2.47;;
42802;SDS011;28447;48.682;9.022;2023-02-17T14:14:09;2.83;;;2.53;;
42802;SDS011;28447;48.682;9.022;2023-02-17T14:16:38;4.50;;;2.40;;
42802;SDS011;28447;48.682;9.022;2023-02-17T14:19:11;3.60;;;3.00;;
42802;SDS011;28447;48.682;9.022;2023-02-17T14:21:58;3.23;;;2.60;;
42802;SDS011;28447;48.682;9.022;2023-02-17T14:24:33;5.00;;;2.90;;
42802;SDS011;28447;48.682;9.022;2023-02-17T14:27:01;4.47;;;3.00;;
42802;SDS011;28447;48.682;9.022;2023-02-17T14:29:47;4.10;;;3.10;;
42802;SDS011;28447;48.682;9.022;2023-02-17T14:37:39;4.70;;;3.10;;
42802;SDS011;28447;48.682;9.022;2023-02-17T14:40:13;4.33;;;3.20;;
42802;SDS011;28447;48.682;9.022;2023-02-17T14:42:49;5.00;;;3.40;;
42802;SDS011;28447;48.682;9.022;2023-02-17T14:45:15;5.33;;;4.00;;
42802;SDS011;28447;48.682;9.022;2023-02-17T14:47:42;4.97;;;3.40;;
42802;SDS011;28447;48.682;9.022;2023-02-17T14:50:08;4.27;;;3.50;;
42802;SDS011;28447;48.682;9.022;2023-02-17T14:52:37;10.50;;;3.60;;
42802;SDS011;28447;48.682;9.022;2023-02-17T14:55:21;3.40;;;3.00;;
42802;SDS011;28447;48.682;9.022;2023-02-17T14:57:49;5.50;;;3.20;;
42802;SDS011;28447;48.682;9.022;2023-02-17T15:00:14;4.70;;;3.20;;
42802;SDS011;28447;48.682;9.022;2023-02-17T15:02:40;4.03;;;3.27;;
42802;SDS011;28447;48.682;9.022;2023-02-17T15:05:06;6.50;;;3.40;;
42802;SDS011;28447;48.682;9.022;2023-02-17T15:07:32;3.80;;;3.40;;
42802;SDS011;28447;48.682;9.022;2023-02-17T15:09:58;5.13;;;3.90;;
42802;SDS011;28447;48.682;9.022;2023-02-17T15:12:23;7.50;;;2.90;;
42802;SDS011;28447;48.682;9.022;2023-02-17T15:14:49;6.20;;;3.20;;
42802;SDS011;28447;48.682;9.022;2023-02-17T15:17:15;7.17;;;3.50;;
42802;SDS011;28447;48.682;9.022;2023-02-17T15:19:40;4.37;;;3.00;;
42802;SDS011;28447;48.682;9.022;2023-02-17T15:22:09;6.53;;;3.20;;
42802;SDS011;28447;48.682;9.022;2023-02-17T15:24:36;4.10;;;3.00;;
42802;SDS011;28447;48.682;9.022;2023-02-17T15:27:03;5.77;;;3.20;;
42802;SDS011;28447;48.682;9.022;2023-02-17T15:29:30;4.53;;;3.40;;
42802;SDS011;28447;48.682;9.022;2023-02-17T15:31:58;4.17;;;3.10;;
42802;SDS011;28447;48.682;9.022;2023-02-17T15:34:26;4.77;;;3.13;;
42802;SDS011;28447;48.682;9.022;2023-02-17T15:36:57;6.50;;;3.57;;
42802;SDS011;28447;48.682;9.022;2023-02-17T15:39:23;5.60;;;3.27;;
42802;SDS011;28447;48.682;9.022;2023-02-17T15:41:49;3.23;;;2.80;;
42802;SDS011;28447;48.682;9.022;2023-02-17T15:44:21;5.37;;;3.17;;
42802;SDS011;28447;48.682;9.022;2023-02-17T15:46:50;4.30;;;3.50;;
42802;SDS011;28447;48.682;9.022;2023-02-17T15:49:18;4.00;;;3.13;;
42802;SDS011;28447;48.682;9.022;2023-02-17T15:51:44;4.07;;;3.23;;
42802;SDS011;28447;48.682;9.022;2023-02-17T15:54:10;2.87;;;2.57;;
42802;SDS011;28447;48.682;9.022;2023-02-17T15:56:39;7.20;;;3.27;;
42802;SDS011;28447;48.682;9.022;2023-02-17T15:59:16;14.43;;;3.00;;
42802;SDS011;28447;48.682;9.022;2023-02-17T16:01:45;4.07;;;2.80;;
42802;SDS011;28447;48.682;9.022;2023-02-17T16:04:11;6.00;;;2.90;;
42802;SDS011;28447;48.682;9.022;2023-02-17T16:06:39;3.90;;;3.30;;
42802;SDS011;28447;48.682;9.022;2023-02-17T16:09:05;4.27;;;3.53;;
42802;SDS011;28447;48.682;9.022;2023-02-17T16:11:31;3.50;;;3.07;;
42802;SDS011;28447;48.682;9.022;2023-02-17T16:13:57;5.77;;;3.10;;
42802;SDS011;28447;48.682;9.022;2023-02-17T16:16:29;5.57;;;3.20;;
42802;SDS011;28447;48.682;9.022;2023-02-17T16:19:00;9.57;;;3.73;;
42802;SDS011;28447;48.682;9.022;2023-02-17T16:21:26;4.40;;;3.50;;
42802;SDS011;28447;48.682;9.022;2023-02-17T16:23:52;4.90;;;3.37;;
42802;SDS011;28447;48.682;9.022;2023-02-17T16:26:25;3.60;;;3.10;;
42802;SDS011;28447;48.682;9.022;2023-02-17T16:28:55;5.63;;;3.00;;
42802;SDS011;28447;48.682;9.022;2023-02-17T16:31:21;3.10;;;2.80;;
42802;SDS011;28447;48.682;9.022;2023-02-17T16:33:47;5.00;;;3.80;;
42802;SDS011;28447;48.682;9.022;2023-02-17T16:36:13;6.67;;;3.33;;
42802;SDS011;28447;48.682;9.022;2023-02-17T16:38:40;3.33;;;3.03;;
42802;SDS011;28447;48.682;9.022;2023-02-17T16:41:10;5.07;;;3.30;;
42802;SDS011;28447;48.682;9.022;2023-02-17T16:43:38;6.20;;;4.13;;
42802;SDS011;28447;48.682;9.022;2023-02-17T16:46:04;4.07;;;3.40;;
42802;SDS011;28447;48.682;9.022;2023-02-17T16:48:31;5.67;;;3.80;;
42802;SDS011;28447;48.682;9.022;2023-02-17T16:50:59;6.10;;;3.80;;
42802;SDS011;28447;48.682;9.022;2023-02-17T16:53:25;4.33;;;3.00;;
42802;SDS011;28447;48.682;9.022;2023-02-17T16:55:52;4.67;;;3.77;;
42802;SDS011;28447;48.682;9.022;2023-02-17T16:58:23;4.97;;;3.70;;
42802;SDS011;28447;48.682;9.022;2023-02-17T17:00:51;5.53;;;3.57;;
42802;SDS011;28447;48.682;9.022;2023-02-17T17:03:18;6.53;;;4.07;;
42802;SDS011;28447;48.682;9.022;2023-02-17T17:05:46;4.30;;;3.70;;
42802;SDS011;28447;48.682;9.022;2023-02-17T17:08:12;5.53;;;3.70;;
42802;SDS011;28447;48.682;9.022;2023-02-17T17:10:40;4.77;;;3.17;;
42802;SDS011;28447;48.682;9.022;2023-02-17T17:13:07;3.83;;;3.30;;
42802;SDS011;28447;48.682;9.022;2023-02-17T17:15:34;4.20;;;3.47;;
42802;SDS011;28447;48.682;9.022;2023-02-17T17:18:02;5.13;;;3.20;;
42802;SDS011;28447;48.682;9.022;2023-02-17T17:20:31;5.00;;;3.50;;
42802;SDS011;28447;48.682;9.022;2023-02-17T17:23:06;4.33;;;3.77;;
42802;SDS011;28447;48.682;9.022;2023-02-17T17:25:35;4.00;;;3.50;;
42802;SDS011;28447;48.682;9.022;2023-02-17T17:28:03;7.67;;;4.70;;
42802;SDS011;28447;48.682;9.022;2023-02-17T17:30:29;14.80;;;9.13;;
42802;SDS011;28447;48.682;9.022;2023-02-17T17:32:59;4.07;;;3.30;;
42802;SDS011;28447;48.682;9.022;2023-02-17T17:35:25;3.83;;;3.23;;
42802;SDS011;28447;48.682;9.022;2023-02-17T17:37:51;5.67;;;3.80;;
42802;SDS011;28447;48.682;9.022;2023-02-17T17:40:21;4.30;;;3.50;;
42802;SDS011;28447;48.682;9.022;2023-02-17T17:42:49;3.70;;;3.20;;
42802;SDS011;28447;48.682;9.022;2023-02-17T17:45:15;4.03;;;3.30;;
42802;SDS011;28447;48.682;9.022;2023-02-17T17:47:41;6.37;;;3.53;;
42802;SDS011;28447;48.682;9.022;2023-02-17T17:50:08;3.50;;;2.97;;
42802;SDS011;28447;48.682;9.022;2023-02-17T17:52:41;6.33;;;3.70;;
42802;SDS011;28447;48.682;9.022;2023-02-17T17:55:08;4.60;;;3.67;;
42802;SDS011;28447;48.682;9.022;2023-02-17T17:57:34;5.10;;;3.50;;
42802;SDS011;28447;48.682;9.022;2023-02-17T18:00:00;9.43;;;5.17;;
42802;SDS011;28447;48.682;9.022;2023-02-17T18:02:28;7.90;;;4.20;;
42802;SDS011;28447;48.682;9.022;2023-02-17T18:04:53;4.77;;;3.70;;
42802;SDS011;28447;48.682;9.022;2023-02-17T18:07:19;4.83;;;3.70;;
42802;SDS011;28447;48.682;9.022;2023-02-17T18:09:45;5.53;;;3.97;;
42802;SDS011;28447;48.682;9.022;2023-02-17T18:12:12;5.30;;;3.83;;
42802;SDS011;28447;48.682;9.022;2023-02-17T18:14:40;4.30;;;3.63;;
42802;SDS011;28447;48.682;9.022;2023-02-17T18:17:08;5.23;;;3.60;;
42802;SDS011;28447;48.682;9.022;2023-02-17T18:19:35;11.43;;;4.00;;
42802;SDS011;28447;48.682;9.022;2023-02-17T18:22:01;6.97;;;3.10;;
42802;SDS011;28447;48.682;9.022;2023-02-17T18:24:26;5.30;;;3.07;;
42802;SDS011;28447;48.682;9.022;2023-02-17T18:26:52;5.40;;;3.17;;
42802;SDS011;28447;48.682;9.022;2023-02-17T18:29:18;7.27;;;4.17;;
42802;SDS011;28447;48.682;9.022;2023-02-17T18:31:44;9.93;;;5.03;;
42802;SDS011;28447;48.682;9.022;2023-02-17T18:34:10;3.50;;;2.97;;
42802;SDS011;28447;48.682;9.022;2023-02-17T18:36:36;4.30;;;3.37;;
42802;SDS011;28447;48.682;9.022;2023-02-17T18:39:02;4.07;;;2.80;;
42802;SDS011;28447;48.682;9.022;2023-02-17T18:41:29;4.70;;;3.53;;
42802;SDS011;28447;48.682;9.022;2023-02-17T18:43:57;4.57;;;3.40;;
42802;SDS011;28447;48.682;9.022;2023-02-17T18:46:24;5.23;;;3.83;;
42802;SDS011;28447;48.682;9.022;2023-02-17T18:48:51;4.13;;;3.23;;
42802;SDS011;28447;48.682;9.022;2023-02-17T18:51:18;4.00;;;3.60;;
42802;SDS011;28447;48.682;9.022;2023-02-17T18:53:47;5.07;;;3.40;;
42802;SDS011;28447;48.682;9.022;2023-02-17T18:56:17;4.77;;;3.30;;
42802;SDS011;28447;48.682;9.022;2023-02-17T18:58:48;4.30;;;3.90;;
42802;SDS011;28447;48.682;9.022;2023-02-17T19:01:16;5.77;;;3.83;;
42802;SDS011;28447;48.682;9.022;2023-02-17T19:03:44;4.80;;;3.83;;
42802;SDS011;28447;48.682;9.022;2023-02-17T19:06:11;5.30;;;3.80;;
42802;SDS011;28447;48.682;9.022;2023-02-17T19:08:40;7.90;;;3.80;;
42802;SDS011;28447;48.682;9.022;2023-02-17T19:11:06;4.33;;;3.13;;
42802;SDS011;28447;48.682;9.022;2023-02-17T19:13:32;4.30;;;3.60;;
42802;SDS011;28447;48.682;9.022;2023-02-17T19:16:05;4.73;;;3.03;;
42802;SDS011;28447;48.682;9.022;2023-02-17T19:18:42;4.50;;;3.30;;
42802;SDS011;28447;48.682;9.022;2023-02-17T19:21:08;3.50;;;3.20;;
42802;SDS011;28447;48.682;9.022;2023-02-17T19:23:35;4.57;;;3.17;;
42802;SDS011;28447;48.682;9.022;2023-02-17T19:26:01;4.80;;;3.47;;
42802;SDS011;28447;48.682;9.022;2023-02-17T19:28:29;3.80;;;3.33;;
42802;SDS011;28447;48.682;9.022;2023-02-17T19:30:55;5.33;;;3.43;;
42802;SDS011;28447;48.682;9.022;2023-02-17T19:33:21;5.33;;;3.60;;
42802;SDS011;28447;48.682;9.022;2023-02-17T19:35:48;6.63;;;3.73;;
42802;SDS011;28447;48.682;9.022;2023-02-17T19:38:14;4.23;;;3.40;;
42802;SDS011;28447;48.682;9.022;2023-02-17T19:40:39;5.70;;;3.33;;
42802;SDS011;28447;48.682;9.022;2023-02-17T19:43:05;3.20;;;2.90;;
42802;SDS011;28447;48.682;9.022;2023-02-17T19:45:31;6.17;;;3.13;;
42802;SDS011;28447;48.682;9.022;2023-02-17T19:47:56;5.23;;;3.20;;
42802;SDS011;28447;48.682;9.022;2023-02-17T19:50:22;5.30;;;3.80;;
42802;SDS011;28447;48.682;9.022;2023-02-17T19:52:48;5.00;;;3.50;;
42802;SDS011;28447;48.682;9.022;2023-02-17T19:55:13;4.90;;;3.00;;
42802;SDS011;28447;48.682;9.022;2023-02-17T19:57:39;4.07;;;3.00;;
42802;SDS011;28447;48.682;9.022;2023-02-17T20:00:06;4.50;;;3.30;;
42802;SDS011;28447;48.682;9.022;2023-02-17T20:02:33;3.93;;;2.73;;
42802;SDS011;28447;48.682;9.022;2023-02-17T20:04:59;4.30;;;3.37;;
42802;SDS011;28447;48.682;9.022;2023-02-17T20:07:25;3.30;;;3.00;;
42802;SDS011;28447;48.682;9.022;2023-02-17T20:09:51;4.00;;;3.10;;
42802;SDS011;28447;48.682;9.022;2023-02-17T20:12:17;7.70;;;3.40;;
42802;SDS011;28447;48.682;9.022;2023-02-17T20:14:43;3.63;;;2.60;;
42802;SDS011;28447;48.682;9.022;2023-02-17T20:17:12;4.23;;;3.33;;
42802;SDS011;28447;48.682;9.022;2023-02-17T20:19:39;4.20;;;3.00;;
42802;SDS011;28447;48.682;9.022;2023-02-17T20:22:05;6.60;;;3.67;;
42802;SDS011;28447;48.682;9.022;2023-02-17T20:24:32;4.50;;;2.63;;
42802;SDS011;28447;48.682;9.022;2023-02-17T20:26:58;3.40;;;2.40;;
42802;SDS011;28447;48.682;9.022;2023-02-17T20:29:24;2.60;;;2.10;;
42802;SDS011;28447;48.682;9.022;2023-02-17T20:31:50;3.40;;;2.57;;
42802;SDS011;28447;48.682;9.022;2023-02-17T20:34:32;2.67;;;2.47;;
42802;SDS011;28447;48.682;9.022;2023-02-17T20:37:01;2.37;;;2.00;;
42802;SDS011;28447;48.682;9.022;2023-02-17T20:39:27;3.50;;;2.30;;
42802;SDS011;28447;48.682;9.022;2023-02-17T20:41:53;2.47;;;2.13;;
42802;SDS011;28447;48.682;9.022;2023-02-17T20:44:20;2.67;;;2.07;;
42802;SDS011;28447;48.682;9.022;2023-02-17T20:46:46;2.27;;;1.90;;
42802;SDS011;28447;48.682;9.022;2023-02-17T20:49:12;3.30;;;2.00;;
42802;SDS011;28447;48.682;9.022;2023-02-17T20:51:39;2.30;;;2.00;;
42802;SDS011;28447;48.682;9.022;2023-02-17T20:54:05;2.30;;;2.00;;
42802;SDS011;28447;48.682;9.022;2023-02-17T20:56:31;3.43;;;2.00;;
42802;SDS011;28447;48.682;9.022;2023-02-17T20:59:05;2.97;;;2.13;;
42802;SDS011;28447;48.682;9.022;2023-02-17T21:01:32;2.47;;;1.90;;
42802;SDS011;28447;48.682;9.022;2023-02-17T21:03:59;2.00;;;1.80;;
42802;SDS011;28447;48.682;9.022;2023-02-17T21:06:32;2.47;;;1.93;;
42802;SDS011;28447;48.682;9.022;2023-02-17T21:09:01;1.70;;;1.60;;
42802;SDS011;28447;48.682;9.022;2023-02-17T21:11:30;1.90;;;1.70;;
42802;SDS011;28447;48.682;9.022;2023-02-17T21:13:55;1.60;;;1.47;;
42802;SDS011;28447;48.682;9.022;2023-02-17T21:16:23;1.70;;;1.60;;